sensor_id;sensor_type;location;lat;lon;timestamp;pressure;altitude;pressure_sealevel;temperature;humidity
56074;BME280;41950;55.840;37.442;2023-03-26T00:01:29;98269.72;;;7.35;94.03
56074;BME280;41950;55.840;37.442;2023-03-26T00:03:58;98286.56;;;7.48;93.81
56074;BME280;41950;55.840;37.442;2023-03-26T00:06:27;98279.00;;;7.42;93.74
56074;BME280;41950;55.840;37.442;2023-03-26T00:08:54;98275.56;;;7.41;94.17
56074;BME280;41950;55.840;37.442;2023-03-26T00:11:23;98267.03;;;7.38;93.93
56074;BME280;41950;55.840;37.442;2023-03-26T00:13:49;98284.16;;;7.42;94.18
56074;BME280;41950;55.840;37.442;2023-03-26T00:16:18;98279.06;;;7.39;94.08
56074;BME280;41950;55.840;37.442;2023-03-26T00:18:44;98274.78;;;7.38;94.24
56074;BME280;41950;55.840;37.442;2023-03-26T00:21:16;98285.91;;;7.41;94.16
56074;BME280;41950;55.840;37.442;2023-03-26T00:23:43;98275.00;;;7.30;94.05
56074;BME280;41950;55.840;37.442;2023-03-26T00:26:09;98284.16;;;7.42;93.94
56074;BME280;41950;55.840;37.442;2023-03-26T00:28:39;98287.63;;;7.41;93.89
56074;BME280;41950;55.840;37.442;2023-03-26T00:31:08;98275.72;;;7.35;94.10
56074;BME280;41950;55.840;37.442;2023-03-26T00:33:34;98286.00;;;7.37;93.94
56074;BME280;41950;55.840;37.442;2023-03-26T00:36:10;98271.47;;;7.33;94.16
56074;BME280;41950;55.840;37.442;2023-03-26T00:38:36;98274.06;;;7.33;93.91
56074;BME280;41950;55.840;37.442;2023-03-26T00:41:08;98270.84;;;7.25;94.13
56074;BME280;41950;55.840;37.442;2023-03-26T00:43:44;98271.03;;;7.19;94.23
56074;BME280;41950;55.840;37.442;2023-03-26T00:46:10;98288.19;;;7.20;93.99
56074;BME280;41950;55.840;37.442;2023-03-26T00:48:36;98272.88;;;7.13;94.66
56074;BME280;41950;55.840;37.442;2023-03-26T00:51:04;98266.03;;;7.12;94.58
56074;BME280;41950;55.840;37.442;2023-03-26T00:53:31;98238.88;;;6.98;94.59
56074;BME280;41950;55.840;37.442;2023-03-26T00:55:58;98272.72;;;7.20;94.49
56074;BME280;41950;55.840;37.442;2023-03-26T00:58:25;98254.91;;;7.09;94.48
56074;BME280;41950;55.840;37.442;2023-03-26T01:01:01;98247.28;;;7.04;94.53
56074;BME280;41950;55.840;37.442;2023-03-26T01:03:32;98267.00;;;7.07;94.77
56074;BME280;41950;55.840;37.442;2023-03-26T01:06:05;98238.16;;;6.93;94.76
56074;BME280;41950;55.840;37.442;2023-03-26T01:08:38;98260.13;;;7.07;94.45
56074;BME280;41950;55.840;37.442;2023-03-26T01:11:08;98262.69;;;7.07;94.73
56074;BME280;41950;55.840;37.442;2023-03-26T01:13:44;98244.00;;;6.99;94.71
56074;BME280;41950;55.840;37.442;2023-03-26T01:16:25;98254.16;;;7.05;94.47
56074;BME280;41950;55.840;37.442;2023-03-26T01:18:52;98242.31;;;6.98;94.71
56074;BME280;41950;55.840;37.442;2023-03-26T01:21:21;98262.69;;;7.07;94.42
56074;BME280;41950;55.840;37.442;2023-03-26T01:24:01;98260.03;;;7.10;94.53
56074;BME280;41950;55.840;37.442;2023-03-26T01:29:43;98252.47;;;7.04;94.47
56074;BME280;41950;55.840;37.442;2023-03-26T01:35:07;98255.25;;;6.97;94.13
56074;BME280;41950;55.840;37.442;2023-03-26T01:38:00;98261.41;;;6.91;94.49
56074;BME280;41950;55.840;37.442;2023-03-26T01:40:38;98258.06;;;6.88;94.73
56074;BME280;41950;55.840;37.442;2023-03-26T01:45:52;98249.78;;;6.75;94.42
56074;BME280;41950;55.840;37.442;2023-03-26T01:48:19;98230.44;;;6.57;94.21
56074;BME280;41950;55.840;37.442;2023-03-26T01:50:45;98245.63;;;6.69;94.66
56074;BME280;41950;55.840;37.442;2023-03-26T01:53:11;98239.66;;;6.67;94.50
56074;BME280;41950;55.840;37.442;2023-03-26T01:56:04;98252.22;;;6.79;94.80
56074;BME280;41950;55.840;37.442;2023-03-26T02:01:36;98240.41;;;6.71;94.65
56074;BME280;41950;55.840;37.442;2023-03-26T02:04:25;98226.16;;;6.56;94.48
56074;BME280;41950;55.840;37.442;2023-03-26T02:09:57;98236.31;;;6.64;94.94
56074;BME280;41950;55.840;37.442;2023-03-26T02:12:24;98239.81;;;6.61;95.02
56074;BME280;41950;55.840;37.442;2023-03-26T02:14:51;98237.16;;;6.64;94.98
56074;BME280;41950;55.840;37.442;2023-03-26T02:17:37;98226.84;;;6.64;95.09
56074;BME280;41950;55.840;37.442;2023-03-26T02:20:08;98218.41;;;6.58;94.97
56074;BME280;41950;55.840;37.442;2023-03-26T02:22:38;98234.50;;;6.67;94.83
56074;BME280;41950;55.840;37.442;2023-03-26T02:25:12;98231.13;;;6.65;95.04
56074;BME280;41950;55.840;37.442;2023-03-26T02:27:39;98232.94;;;6.62;94.78
56074;BME280;41950;55.840;37.442;2023-03-26T02:30:07;98229.53;;;6.60;94.76
56074;BME280;41950;55.840;37.442;2023-03-26T02:32:34;98213.31;;;6.55;94.97
56074;BME280;41950;55.840;37.442;2023-03-26T02:35:00;98219.19;;;6.61;94.89
56074;BME280;41950;55.840;37.442;2023-03-26T02:37:26;98196.19;;;6.52;94.51
56074;BME280;41950;55.840;37.442;2023-03-26T02:39:52;98212.38;;;6.59;94.53
56074;BME280;41950;55.840;37.442;2023-03-26T02:42:17;98199.56;;;6.54;94.34
56074;BME280;41950;55.840;37.442;2023-03-26T02:44:43;98200.28;;;6.61;94.19
56074;BME280;41950;55.840;37.442;2023-03-26T02:47:08;98212.81;;;6.74;94.15
56074;BME280;41950;55.840;37.442;2023-03-26T02:49:34;98216.22;;;6.76;93.54
56074;BME280;41950;55.840;37.442;2023-03-26T02:52:00;98200.91;;;6.70;93.27
56074;BME280;41950;55.840;37.442;2023-03-26T02:54:31;98211.84;;;6.78;92.91
56074;BME280;41950;55.840;37.442;2023-03-26T02:56:58;98201.66;;;6.74;92.56
56074;BME280;41950;55.840;37.442;2023-03-26T02:59:23;98208.50;;;6.75;92.33
56074;BME280;41950;55.840;37.442;2023-03-26T03:01:49;98186.59;;;6.59;92.28
56074;BME280;41950;55.840;37.442;2023-03-26T03:04:14;98182.28;;;6.59;91.83
56074;BME280;41950;55.840;37.442;2023-03-26T03:06:42;98192.38;;;6.68;91.77
56074;BME280;41950;55.840;37.442;2023-03-26T03:09:09;98196.59;;;6.71;91.92
56074;BME280;41950;55.840;37.442;2023-03-26T03:11:36;98188.81;;;6.72;91.60
56074;BME280;41950;55.840;37.442;2023-03-26T03:14:03;98190.38;;;6.78;91.29
56074;BME280;41950;55.840;37.442;2023-03-26T03:16:34;98195.53;;;6.78;91.07
56074;BME280;41950;55.840;37.442;2023-03-26T03:19:00;98190.38;;;6.78;91.01
56074;BME280;41950;55.840;37.442;2023-03-26T03:21:27;98185.19;;;6.79;90.88
56074;BME280;41950;55.840;37.442;2023-03-26T03:23:54;98183.44;;;6.80;90.54
56074;BME280;41950;55.840;37.442;2023-03-26T03:26:21;98177.41;;;6.81;90.34
56074;BME280;41950;55.840;37.442;2023-03-26T03:28:48;98170.78;;;6.72;90.30
56074;BME280;41950;55.840;37.442;2023-03-26T03:31:15;98164.81;;;6.70;90.40
56074;BME280;41950;55.840;37.442;2023-03-26T03:33:41;98166.47;;;6.73;90.41
56074;BME280;41950;55.840;37.442;2023-03-26T03:36:09;98174.16;;;6.74;90.42
56074;BME280;41950;55.840;37.442;2023-03-26T03:38:37;98158.84;;;6.68;90.02
56074;BME280;41950;55.840;37.442;2023-03-26T03:41:03;98167.34;;;6.72;90.29
56074;BME280;41950;55.840;37.442;2023-03-26T03:43:29;98159.69;;;6.69;90.03
56074;BME280;41950;55.840;37.442;2023-03-26T03:45:54;98152.00;;;6.67;90.00
56074;BME280;41950;55.840;37.442;2023-03-26T03:48:20;98157.78;;;6.75;89.82
56074;BME280;41950;55.840;37.442;2023-03-26T03:50:46;98164.50;;;6.81;90.01
56074;BME280;41950;55.840;37.442;2023-03-26T03:53:11;98139.06;;;6.69;89.79
56074;BME280;41950;55.840;37.442;2023-03-26T03:55:41;98149.09;;;6.79;89.78
56074;BME280;41950;55.840;37.442;2023-03-26T03:58:07;98149.03;;;6.81;89.69
56074;BME280;41950;55.840;37.442;2023-03-26T04:00:34;98134.69;;;6.72;89.60
56074;BME280;41950;55.840;37.442;2023-03-26T04:03:03;98143.78;;;6.86;89.66
56074;BME280;41950;55.840;37.442;2023-03-26T04:05:31;98136.06;;;6.84;89.20
56074;BME280;41950;55.840;37.442;2023-03-26T04:07:57;98121.66;;;6.77;89.45
56074;BME280;41950;55.840;37.442;2023-03-26T04:10:24;98119.06;;;6.77;89.54
56074;BME280;41950;55.840;37.442;2023-03-26T04:12:50;98147.03;;;6.92;89.53
56074;BME280;41950;55.840;37.442;2023-03-26T04:15:15;98135.75;;;6.96;89.65
56074;BME280;41950;55.840;37.442;2023-03-26T04:17:41;98133.03;;;7.01;89.31
56074;BME280;41950;55.840;37.442;2023-03-26T04:20:09;98125.44;;;6.96;89.20
56074;BME280;41950;55.840;37.442;2023-03-26T04:22:39;98116.91;;;6.94;89.24
56074;BME280;41950;55.840;37.442;2023-03-26T04:25:05;98133.66;;;7.09;89.13
56074;BME280;41950;55.840;37.442;2023-03-26T04:27:33;98115.91;;;6.98;89.30
56074;BME280;41950;55.840;37.442;2023-03-26T04:30:02;98128.41;;;7.13;88.94
56074;BME280;41950;55.840;37.442;2023-03-26T04:32:29;98127.50;;;7.15;89.02
56074;BME280;41950;55.840;37.442;2023-03-26T04:34:59;98121.28;;;7.22;88.88
56074;BME280;41950;55.840;37.442;2023-03-26T04:39:59;98119.44;;;7.25;88.92
56074;BME280;41950;55.840;37.442;2023-03-26T04:42:26;98099.09;;;7.16;88.92
56074;BME280;41950;55.840;37.442;2023-03-26T04:44:53;98124.38;;;7.33;89.00
56074;BME280;41950;55.840;37.442;2023-03-26T04:47:18;98103.13;;;7.25;88.73
56074;BME280;41950;55.840;37.442;2023-03-26T04:49:45;98107.03;;;7.38;88.65
56074;BME280;41950;55.840;37.442;2023-03-26T04:52:12;98110.44;;;7.40;88.54
56074;BME280;41950;55.840;37.442;2023-03-26T04:54:38;98100.22;;;7.35;88.73
56074;BME280;41950;55.840;37.442;2023-03-26T04:57:34;98101.94;;;7.35;88.61
56074;BME280;41950;55.840;37.442;2023-03-26T05:00:04;98102.84;;;7.34;88.96
56074;BME280;41950;55.840;37.442;2023-03-26T05:02:42;98092.56;;;7.32;89.04
56074;BME280;41950;55.840;37.442;2023-03-26T05:05:08;98093.50;;;7.30;88.71
56074;BME280;41950;55.840;37.442;2023-03-26T05:07:34;98095.81;;;7.39;88.68
56074;BME280;41950;55.840;37.442;2023-03-26T05:10:00;98089.00;;;7.36;88.86
56074;BME280;41950;55.840;37.442;2023-03-26T05:12:29;98097.44;;;7.43;88.68
56074;BME280;41950;55.840;37.442;2023-03-26T05:14:54;98093.91;;;7.46;89.03
56074;BME280;41950;55.840;37.442;2023-03-26T05:17:21;98091.09;;;7.53;88.79
56074;BME280;41950;55.840;37.442;2023-03-26T05:19:48;98077.38;;;7.51;88.87
56074;BME280;41950;55.840;37.442;2023-03-26T05:22:13;98081.50;;;7.57;88.41
56074;BME280;41950;55.840;37.442;2023-03-26T05:24:39;98076.44;;;7.54;88.55
56074;BME280;41950;55.840;37.442;2023-03-26T05:27:04;98083.91;;;7.63;88.44
56074;BME280;41950;55.840;37.442;2023-03-26T05:29:30;98083.69;;;7.70;88.65
56074;BME280;41950;55.840;37.442;2023-03-26T05:31:56;98074.09;;;7.74;88.07
56074;BME280;41950;55.840;37.442;2023-03-26T05:34:22;98088.75;;;7.73;88.18
56074;BME280;41950;55.840;37.442;2023-03-26T05:36:51;98072.50;;;7.70;88.04
56074;BME280;41950;55.840;37.442;2023-03-26T05:39:17;98090.25;;;7.81;88.23
56074;BME280;41950;55.840;37.442;2023-03-26T05:41:43;98079.97;;;7.79;88.31
56074;BME280;41950;55.840;37.442;2023-03-26T05:44:09;98084.88;;;7.87;88.26
56074;BME280;41950;55.840;37.442;2023-03-26T05:46:35;98084.03;;;7.86;87.92
56074;BME280;41950;55.840;37.442;2023-03-26T05:49:00;98067.47;;;7.92;88.15
56074;BME280;41950;55.840;37.442;2023-03-26T05:51:26;98035.09;;;7.82;87.46
56074;BME280;41950;55.840;37.442;2023-03-26T05:53:51;98079.81;;;8.10;87.66
56074;BME280;41950;55.840;37.442;2023-03-26T05:56:17;98060.03;;;8.09;87.43
56074;BME280;41950;55.840;37.442;2023-03-26T05:58:43;98085.72;;;8.14;87.29
56074;BME280;41950;55.840;37.442;2023-03-26T06:01:10;98077.03;;;8.16;87.27
56074;BME280;41950;55.840;37.442;2023-03-26T06:03:41;98073.81;;;8.10;87.48
56074;BME280;41950;55.840;37.442;2023-03-26T06:06:11;98065.94;;;8.13;87.51
56074;BME280;41950;55.840;37.442;2023-03-26T06:08:42;98049.81;;;8.06;87.70
56074;BME280;41950;55.840;37.442;2023-03-26T06:11:09;98002.38;;;7.82;87.45
56074;BME280;41950;55.840;37.442;2023-03-26T06:13:37;98064.72;;;8.24;87.06
56074;BME280;41950;55.840;37.442;2023-03-26T06:16:03;98012.06;;;8.02;87.09
56074;BME280;41950;55.840;37.442;2023-03-26T06:18:29;98048.03;;;8.33;87.08
56074;BME280;41950;55.840;37.442;2023-03-26T06:20:54;98046.22;;;8.36;86.91
56074;BME280;41950;55.840;37.442;2023-03-26T06:23:20;98037.56;;;8.38;86.64
56074;BME280;41950;55.840;37.442;2023-03-26T06:25:47;98035.75;;;8.40;87.02
56074;BME280;41950;55.840;37.442;2023-03-26T06:28:14;98016.09;;;8.35;86.90
56074;BME280;41950;55.840;37.442;2023-03-26T06:30:40;98031.28;;;8.45;87.05
56074;BME280;41950;55.840;37.442;2023-03-26T06:33:06;98025.81;;;8.54;86.88
56074;BME280;41950;55.840;37.442;2023-03-26T06:35:32;98025.81;;;8.54;86.69
56074;BME280;41950;55.840;37.442;2023-03-26T06:37:58;98009.81;;;8.43;87.17
56074;BME280;41950;55.840;37.442;2023-03-26T06:40:24;98017.34;;;8.49;87.40
56074;BME280;41950;55.840;37.442;2023-03-26T06:42:50;98019.50;;;8.61;87.00
56074;BME280;41950;55.840;37.442;2023-03-26T06:45:16;98003.44;;;8.53;87.23
56074;BME280;41950;55.840;37.442;2023-03-26T06:47:42;98012.25;;;8.71;87.29
56074;BME280;41950;55.840;37.442;2023-03-26T06:50:09;98020.53;;;8.80;87.10
56074;BME280;41950;55.840;37.442;2023-03-26T06:52:36;97987.47;;;8.65;86.89
56074;BME280;41950;55.840;37.442;2023-03-26T06:55:03;97988.13;;;8.70;87.05
56074;BME280;41950;55.840;37.442;2023-03-26T06:57:31;98017.97;;;9.02;86.57
56074;BME280;41950;55.840;37.442;2023-03-26T06:59:56;98014.00;;;8.93;86.46
56074;BME280;41950;55.840;37.442;2023-03-26T07:02:23;98019.13;;;8.95;86.58
56074;BME280;41950;55.840;37.442;2023-03-26T07:04:50;98010.91;;;8.84;86.72
56074;BME280;41950;55.840;37.442;2023-03-26T07:07:15;98012.91;;;8.77;87.09
56074;BME280;41950;55.840;37.442;2023-03-26T07:09:42;97977.53;;;8.54;87.07
56074;BME280;41950;55.840;37.442;2023-03-26T07:12:08;97986.13;;;8.55;87.36
56074;BME280;41950;55.840;37.442;2023-03-26T07:14:34;97988.81;;;8.52;87.54
56074;BME280;41950;55.840;37.442;2023-03-26T07:17:06;97971.19;;;8.38;87.92
56074;BME280;41950;55.840;37.442;2023-03-26T07:19:32;97944.50;;;8.13;88.18
56074;BME280;41950;55.840;37.442;2023-03-26T07:21:58;97997.00;;;8.40;88.73
56074;BME280;41950;55.840;37.442;2023-03-26T07:24:24;97981.28;;;8.19;88.56
56074;BME280;41950;55.840;37.442;2023-03-26T07:34:40;97925.38;;;7.68;90.36
56074;BME280;41950;55.840;37.442;2023-03-26T07:39:57;97967.50;;;7.95;91.35
56074;BME280;41950;55.840;37.442;2023-03-26T07:42:48;97968.13;;;8.02;91.37
56074;BME280;41950;55.840;37.442;2023-03-26T07:47:41;97940.72;;;7.98;91.49
56074;BME280;41950;55.840;37.442;2023-03-26T07:50:15;97959.06;;;8.15;91.25
56074;BME280;41950;55.840;37.442;2023-03-26T07:52:41;97936.34;;;8.00;91.44
56074;BME280;41950;55.840;37.442;2023-03-26T07:55:11;97960.56;;;8.21;91.50
56074;BME280;41950;55.840;37.442;2023-03-26T07:57:53;97952.94;;;8.18;90.79
56074;BME280;41950;55.840;37.442;2023-03-26T08:00:27;97956.34;;;8.18;91.03
56074;BME280;41950;55.840;37.442;2023-03-26T08:05:35;97929.44;;;8.00;90.76
56074;BME280;41950;55.840;37.442;2023-03-26T08:08:18;97945.78;;;8.01;91.14
56074;BME280;41950;55.840;37.442;2023-03-26T08:11:27;97929.69;;;7.93;91.40
56074;BME280;41950;55.840;37.442;2023-03-26T08:19:47;97911.47;;;7.72;91.63
56074;BME280;41950;55.840;37.442;2023-03-26T08:22:22;97875.03;;;7.55;91.55
56074;BME280;41950;55.840;37.442;2023-03-26T08:30:35;97917.38;;;7.76;91.03
56074;BME280;41950;55.840;37.442;2023-03-26T08:35:35;97903.31;;;7.58;91.65
56074;BME280;41950;55.840;37.442;2023-03-26T08:38:11;97916.13;;;7.61;91.73
56074;BME280;41950;55.840;37.442;2023-03-26T08:41:11;97913.81;;;7.54;91.24
56074;BME280;41950;55.840;37.442;2023-03-26T09:00:43;97873.69;;;7.45;91.68
56074;BME280;41950;55.840;37.442;2023-03-26T09:19:25;97862.66;;;7.65;90.86
56074;BME280;41950;55.840;37.442;2023-03-26T09:22:34;97857.19;;;7.74;91.18
56074;BME280;41950;55.840;37.442;2023-03-26T09:42:08;97854.66;;;7.72;90.52
56074;BME280;41950;55.840;37.442;2023-03-26T09:47:35;97857.06;;;7.77;90.31
56074;BME280;41950;55.840;37.442;2023-03-26T09:52:56;97850.59;;;7.65;90.26
56074;BME280;41950;55.840;37.442;2023-03-26T09:58:40;97837.31;;;7.51;90.43
56074;BME280;41950;55.840;37.442;2023-03-26T10:01:30;97833.00;;;7.52;90.70
56074;BME280;41950;55.840;37.442;2023-03-26T10:06:47;97822.72;;;7.50;90.67
56074;BME280;41950;55.840;37.442;2023-03-26T10:09:42;97826.88;;;7.54;90.59
56074;BME280;41950;55.840;37.442;2023-03-26T10:12:23;97821.66;;;7.56;90.84
56074;BME280;41950;55.840;37.442;2023-03-26T10:17:45;97823.97;;;7.63;90.57
56074;BME280;41950;55.840;37.442;2023-03-26T10:20:34;97826.50;;;7.65;90.53
56074;BME280;41950;55.840;37.442;2023-03-26T10:31:28;97816.59;;;7.78;89.84
56074;BME280;41950;55.840;37.442;2023-03-26T10:39:46;97787.31;;;7.54;90.13
56074;BME280;41950;55.840;37.442;2023-03-26T10:42:48;97808.38;;;7.66;90.27
56074;BME280;41950;55.840;37.442;2023-03-26T10:51:16;97804.09;;;7.65;90.31
56074;BME280;41950;55.840;37.442;2023-03-26T10:56:42;97791.72;;;7.75;90.40
56074;BME280;41950;55.840;37.442;2023-03-26T10:59:14;97799.41;;;7.77;90.62
56074;BME280;41950;55.840;37.442;2023-03-26T11:05:19;97772.59;;;7.81;90.09
56074;BME280;41950;55.840;37.442;2023-03-26T11:07:51;97783.34;;;7.92;90.06
56074;BME280;41950;55.840;37.442;2023-03-26T11:16:03;97787.53;;;7.96;90.34
56074;BME280;41950;55.840;37.442;2023-03-26T11:18:42;97781.66;;;7.91;90.36
56074;BME280;41950;55.840;37.442;2023-03-26T11:32:57;97770.06;;;8.02;90.10
56074;BME280;41950;55.840;37.442;2023-03-26T11:35:29;97773.91;;;8.14;90.12
56074;BME280;41950;55.840;37.442;2023-03-26T11:38:02;97761.03;;;8.13;90.18
56074;BME280;41950;55.840;37.442;2023-03-26T11:40:36;97758.28;;;8.17;89.71
56074;BME280;41950;55.840;37.442;2023-03-26T11:43:06;97769.31;;;8.22;89.88
56074;BME280;41950;55.840;37.442;2023-03-26T11:45:38;97759.06;;;8.19;90.15
56074;BME280;41950;55.840;37.442;2023-03-26T11:48:13;97772.50;;;8.29;90.27
56074;BME280;41950;55.840;37.442;2023-03-26T11:50:48;97766.50;;;8.28;89.87
56074;BME280;41950;55.840;37.442;2023-03-26T11:53:19;97742.66;;;8.20;90.09
56074;BME280;41950;55.840;37.442;2023-03-26T12:01:47;97756.78;;;8.35;90.67
56074;BME280;41950;55.840;37.442;2023-03-26T12:04:36;97753.16;;;8.39;90.57
56074;BME280;41950;55.840;37.442;2023-03-26T12:07:31;97756.53;;;8.41;90.28
56074;BME280;41950;55.840;37.442;2023-03-26T12:09:58;97756.72;;;8.36;90.71
56074;BME280;41950;55.840;37.442;2023-03-26T12:12:46;97753.09;;;8.41;90.67
56074;BME280;41950;55.840;37.442;2023-03-26T12:15:19;97747.28;;;8.35;91.18
56074;BME280;41950;55.840;37.442;2023-03-26T12:17:51;97750.59;;;8.39;91.21
56074;BME280;41950;55.840;37.442;2023-03-26T12:20:36;97749.03;;;8.35;91.10
56074;BME280;41950;55.840;37.442;2023-03-26T12:23:04;97747.44;;;8.31;91.43
56074;BME280;41950;55.840;37.442;2023-03-26T12:25:36;97728.63;;;8.27;91.60
56074;BME280;41950;55.840;37.442;2023-03-26T12:30:56;97732.44;;;8.41;91.40
56074;BME280;41950;55.840;37.442;2023-03-26T12:33:40;97719.06;;;8.29;91.79
56074;BME280;41950;55.840;37.442;2023-03-26T12:36:19;97711.31;;;8.29;91.55
56074;BME280;41950;55.840;37.442;2023-03-26T12:38:45;97729.00;;;8.40;92.02
56074;BME280;41950;55.840;37.442;2023-03-26T12:41:14;97716.25;;;8.35;92.04
56074;BME280;41950;55.840;37.442;2023-03-26T12:46:30;97724.66;;;8.41;91.66
56074;BME280;41950;55.840;37.442;2023-03-26T12:49:06;97725.44;;;8.43;91.78
56074;BME280;41950;55.840;37.442;2023-03-26T12:51:57;97723.63;;;8.45;91.58
56074;BME280;41950;55.840;37.442;2023-03-26T12:57:24;97721.31;;;8.39;91.67
56074;BME280;41950;55.840;37.442;2023-03-26T13:08:24;97711.81;;;8.39;91.44
56074;BME280;41950;55.840;37.442;2023-03-26T13:16:12;97706.75;;;8.36;91.57
56074;BME280;41950;55.840;37.442;2023-03-26T13:19:01;97713.31;;;8.45;91.50
56074;BME280;41950;55.840;37.442;2023-03-26T13:38:20;97710.13;;;8.38;91.08
56074;BME280;41950;55.840;37.442;2023-03-26T13:51:39;97712.94;;;8.32;90.66
56074;BME280;41950;55.840;37.442;2023-03-26T13:54:38;97702.78;;;8.27;91.00
56074;BME280;41950;55.840;37.442;2023-03-26T13:57:26;97681.91;;;8.10;91.15
56074;BME280;41950;55.840;37.442;2023-03-26T14:02:56;97698.31;;;8.09;91.26
56074;BME280;41950;55.840;37.442;2023-03-26T14:05:30;97714.59;;;8.11;91.75
56074;BME280;41950;55.840;37.442;2023-03-26T14:08:22;97703.72;;;8.03;91.55
56074;BME280;41950;55.840;37.442;2023-03-26T14:11:00;97700.38;;;8.01;92.03
56074;BME280;41950;55.840;37.442;2023-03-26T14:18:53;97705.53;;;8.01;92.18
56074;BME280;41950;55.840;37.442;2023-03-26T14:29:40;97694.38;;;8.00;92.96
56074;BME280;41950;55.840;37.442;2023-03-26T14:32:28;97701.75;;;8.10;93.02
56074;BME280;41950;55.840;37.442;2023-03-26T14:35:19;97707.81;;;8.09;92.89
56074;BME280;41950;55.840;37.442;2023-03-26T14:55:09;97692.28;;;7.87;93.40
56074;BME280;41950;55.840;37.442;2023-03-26T15:23:35;97683.47;;;7.70;93.94
56074;BME280;41950;55.840;37.442;2023-03-26T15:50:46;97709.59;;;7.61;94.44
56074;BME280;41950;55.840;37.442;2023-03-26T15:53:38;97698.31;;;7.64;94.01
56074;BME280;41950;55.840;37.442;2023-03-26T15:56:19;97700.06;;;7.63;94.16
56074;BME280;41950;55.840;37.442;2023-03-26T15:59:01;97707.00;;;7.61;94.05
56074;BME280;41950;55.840;37.442;2023-03-26T16:01:56;97710.56;;;7.59;93.99
56074;BME280;41950;55.840;37.442;2023-03-26T16:13:22;97701.97;;;7.58;93.77
56074;BME280;41950;55.840;37.442;2023-03-26T16:15:52;97707.13;;;7.58;93.82
56074;BME280;41950;55.840;37.442;2023-03-26T16:18:35;97708.16;;;7.54;93.90
56074;BME280;41950;55.840;37.442;2023-03-26T16:23:53;97704.66;;;7.55;93.60
56074;BME280;41950;55.840;37.442;2023-03-26T16:29:21;97705.50;;;7.56;93.53
56074;BME280;41950;55.840;37.442;2023-03-26T16:32:15;97708.22;;;7.53;93.73
56074;BME280;41950;55.840;37.442;2023-03-26T16:37:37;97705.78;;;7.48;93.54
56074;BME280;41950;55.840;37.442;2023-03-26T16:51:08;97710.34;;;7.41;93.67
56074;BME280;41950;55.840;37.442;2023-03-26T16:56:41;97714.69;;;7.39;94.08
56074;BME280;41950;55.840;37.442;2023-03-26T17:05:22;97721.41;;;7.45;94.13
56074;BME280;41950;55.840;37.442;2023-03-26T17:08:00;97714.50;;;7.46;93.79
56074;BME280;41950;55.840;37.442;2023-03-26T17:13:13;97718.81;;;7.45;93.82
56074;BME280;41950;55.840;37.442;2023-03-26T17:15:51;97720.66;;;7.41;94.42
56074;BME280;41950;55.840;37.442;2023-03-26T17:18:28;97722.41;;;7.41;93.96
56074;BME280;41950;55.840;37.442;2023-03-26T17:23:54;97725.13;;;7.36;94.08
56074;BME280;41950;55.840;37.442;2023-03-26T17:26:48;97717.31;;;7.38;94.26
56074;BME280;41950;55.840;37.442;2023-03-26T17:29:29;97716.50;;;7.37;94.28
56074;BME280;41950;55.840;37.442;2023-03-26T17:32:03;97723.38;;;7.37;94.51
56074;BME280;41950;55.840;37.442;2023-03-26T17:49:50;97710.25;;;7.20;94.56
56074;BME280;41950;55.840;37.442;2023-03-26T17:52:25;97692.38;;;7.15;94.24
56074;BME280;41950;55.840;37.442;2023-03-26T17:54:55;97706.78;;;7.21;94.58
56074;BME280;41950;55.840;37.442;2023-03-26T17:57:25;97700.09;;;7.15;94.42
56074;BME280;41950;55.840;37.442;2023-03-26T17:59:57;97721.19;;;7.26;94.64
56074;BME280;41950;55.840;37.442;2023-03-26T18:02:45;97713.50;;;7.25;94.43
56074;BME280;41950;55.840;37.442;2023-03-26T18:05:14;97712.56;;;7.27;94.86
56074;BME280;41950;55.840;37.442;2023-03-26T18:08:18;97714.19;;;7.30;94.84
56074;BME280;41950;55.840;37.442;2023-03-26T18:13:59;97715.97;;;7.28;94.67
56074;BME280;41950;55.840;37.442;2023-03-26T18:19:29;97717.09;;;7.21;95.06
56074;BME280;41950;55.840;37.442;2023-03-26T18:22:24;97716.09;;;7.25;94.90
56074;BME280;41950;55.840;37.442;2023-03-26T18:24:56;97712.63;;;7.26;95.03
56074;BME280;41950;55.840;37.442;2023-03-26T18:27:28;97708.34;;;7.25;95.10
56074;BME280;41950;55.840;37.442;2023-03-26T18:30:01;97702.41;;;7.23;94.96
56074;BME280;41950;55.840;37.442;2023-03-26T18:32:30;97711.59;;;7.30;94.73
56074;BME280;41950;55.840;37.442;2023-03-26T18:35:00;97718.56;;;7.28;94.84
56074;BME280;41950;55.840;37.442;2023-03-26T18:37:31;97705.66;;;7.28;94.82
56074;BME280;41950;55.840;37.442;2023-03-26T18:40:08;97715.97;;;7.28;94.91
56074;BME280;41950;55.840;37.442;2023-03-26T18:42:42;97712.66;;;7.24;94.95
56074;BME280;41950;55.840;37.442;2023-03-26T18:47:57;97712.66;;;7.24;94.91
56074;BME280;41950;55.840;37.442;2023-03-26T18:50:31;97706.63;;;7.25;95.28
56074;BME280;41950;55.840;37.442;2023-03-26T18:53:00;97709.25;;;7.24;95.16
56074;BME280;41950;55.840;37.442;2023-03-26T18:55:27;97707.84;;;7.15;94.78
56074;BME280;41950;55.840;37.442;2023-03-26T18:57:55;97714.88;;;7.10;95.40
56074;BME280;41950;55.840;37.442;2023-03-26T19:00:25;97712.34;;;7.08;95.12
56074;BME280;41950;55.840;37.442;2023-03-26T19:03:19;97708.19;;;7.04;94.83
56074;BME280;41950;55.840;37.442;2023-03-26T19:05:47;97699.56;;;6.80;94.52
56074;BME280;41950;55.840;37.442;2023-03-26T19:08:15;97716.47;;;6.89;94.99
56074;BME280;41950;55.840;37.442;2023-03-26T19:10:42;97719.94;;;6.88;94.43
56074;BME280;41950;55.840;37.442;2023-03-26T19:13:13;97709.75;;;6.83;94.62
56074;BME280;41950;55.840;37.442;2023-03-26T19:15:40;97714.91;;;6.85;94.09
56074;BME280;41950;55.840;37.442;2023-03-26T19:18:07;97723.38;;;6.89;94.00
56074;BME280;41950;55.840;37.442;2023-03-26T19:20:51;97719.16;;;6.86;93.65
56074;BME280;41950;55.840;37.442;2023-03-26T19:23:19;97722.66;;;6.83;93.44
56074;BME280;41950;55.840;37.442;2023-03-26T19:25:51;97721.88;;;6.81;93.38
56074;BME280;41950;55.840;37.442;2023-03-26T19:30:56;97715.72;;;6.61;92.93